KLM537 EHAM-EGLL
Flight info
| Callsign | KLM537 |
|---|---|
| Flight time | 0h 37m |
| Altitude | 22000 |
| Route | IDRID L980 LOGAN |
| Aircraft | A333/H-SDE3GHIJ2J3J5M1RVWXY/LB2D1 |
Departure
| Time | 2026-05-04 14:13 |
|---|---|
| Airport | Amsterdam Airport Schiphol (EHAM) |
Arrival
| Time | 2026-05-04 14:51 |
|---|---|
| Airport | London Heathrow Airport (EGLL) |
| Time | Latitude | Longitude | Altitude | Speed | Heading |
|---|---|---|---|---|---|
| 2026-05-04 14:13 | 52.28921 | 4.51672 | 7200 ft | 271 kts | 276° |
| 2026-05-04 14:13 | 52.29134 | 4.48600 | 8165 ft | 273 kts | 275° |
| 2026-05-04 14:14 | 52.29351 | 4.45511 | 9148 ft | 275 kts | 275° |
| 2026-05-04 14:14 | 52.29797 | 4.39139 | 10527 ft | 298 kts | 275° |
| 2026-05-04 14:14 | 52.30039 | 4.35650 | 10885 ft | 319 kts | 275° |
| 2026-05-04 14:15 | 52.30553 | 4.28259 | 12218 ft | 334 kts | 275° |
| 2026-05-04 14:15 | 52.31063 | 4.20623 | 13821 ft | 341 kts | 273° |
| 2026-05-04 14:16 | 52.30115 | 4.13070 | 15211 ft | 348 kts | 240° |
| 2026-05-04 14:16 | 52.28743 | 4.09799 | 15907 ft | 351 kts | 233° |
| 2026-05-04 14:17 | 52.25694 | 4.03501 | 17298 ft | 356 kts | 232° |
| 2026-05-04 14:17 | 52.24149 | 4.00318 | 17974 ft | 359 kts | 232° |
| 2026-05-04 14:17 | 52.21032 | 3.93857 | 19146 ft | 366 kts | 232° |
| 2026-05-04 14:18 | 52.19453 | 3.90575 | 19668 ft | 370 kts | 232° |
| 2026-05-04 14:18 | 52.16266 | 3.83956 | 20876 ft | 373 kts | 233° |
| 2026-05-04 14:19 | 52.13046 | 3.77281 | 21885 ft | 377 kts | 233° |
| 2026-05-04 14:19 | 52.11435 | 3.73948 | 21987 ft | 371 kts | 233° |
| 2026-05-04 14:19 | 52.09849 | 3.70671 | 22006 ft | 367 kts | 233° |
| 2026-05-04 14:19 | 52.08276 | 3.67424 | 22003 ft | 366 kts | 233° |
| 2026-05-04 14:20 | 52.06699 | 3.64173 | 22001 ft | 366 kts | 233° |
| 2026-05-04 14:20 | 52.05145 | 3.60971 | 22001 ft | 366 kts | 233° |
| 2026-05-04 14:20 | 52.03570 | 3.57731 | 22006 ft | 366 kts | 233° |
| 2026-05-04 14:21 | 52.00411 | 3.51246 | 22011 ft | 366 kts | 233° |
| 2026-05-04 14:21 | 51.98856 | 3.47980 | 22002 ft | 366 kts | 233° |
| 2026-05-04 14:21 | 51.97330 | 3.44654 | 22009 ft | 368 kts | 234° |
| 2026-05-04 14:21 | 51.95817 | 3.41294 | 22018 ft | 369 kts | 234° |
| 2026-05-04 14:22 | 51.94308 | 3.37927 | 22009 ft | 370 kts | 234° |
| 2026-05-04 14:22 | 51.92797 | 3.34555 | 22009 ft | 369 kts | 234° |
| 2026-05-04 14:22 | 51.91284 | 3.31193 | 22010 ft | 369 kts | 234° |
| 2026-05-04 14:22 | 51.89767 | 3.27837 | 22010 ft | 369 kts | 234° |
| 2026-05-04 14:23 | 51.86737 | 3.21124 | 22009 ft | 369 kts | 237° |
| 2026-05-04 14:23 | 51.85517 | 3.17481 | 22006 ft | 368 kts | 248° |
| 2026-05-04 14:23 | 51.84797 | 3.13514 | 22007 ft | 368 kts | 257° |
| 2026-05-04 14:24 | 51.84346 | 3.09438 | 22003 ft | 369 kts | 261° |
| 2026-05-04 14:24 | 51.84026 | 3.05323 | 22003 ft | 369 kts | 263° |
| 2026-05-04 14:24 | 51.83772 | 3.01198 | 22001 ft | 369 kts | 264° |
| 2026-05-04 14:24 | 51.83540 | 2.97063 | 22001 ft | 369 kts | 264° |
| 2026-05-04 14:25 | 51.83306 | 2.92935 | 22001 ft | 369 kts | 264° |
| 2026-05-04 14:25 | 51.82802 | 2.84680 | 22001 ft | 369 kts | 263° |
| 2026-05-04 14:25 | 51.82534 | 2.80550 | 22001 ft | 369 kts | 263° |
| 2026-05-04 14:26 | 51.82259 | 2.76429 | 22000 ft | 369 kts | 263° |
| 2026-05-04 14:26 | 51.81980 | 2.72303 | 22001 ft | 369 kts | 263° |
| 2026-05-04 14:26 | 51.81699 | 2.68182 | 22001 ft | 369 kts | 263° |
| 2026-05-04 14:26 | 51.81415 | 2.64058 | 22002 ft | 369 kts | 263° |
| 2026-05-04 14:27 | 51.81130 | 2.59929 | 21998 ft | 369 kts | 263° |
| 2026-05-04 14:27 | 51.80843 | 2.55807 | 21999 ft | 369 kts | 263° |
| 2026-05-04 14:27 | 51.80556 | 2.51688 | 22004 ft | 369 kts | 263° |
| 2026-05-04 14:27 | 51.80267 | 2.47563 | 22004 ft | 369 kts | 263° |
| 2026-05-04 14:28 | 51.79977 | 2.43448 | 22005 ft | 369 kts | 263° |
| 2026-05-04 14:28 | 51.79686 | 2.39331 | 22008 ft | 369 kts | 262° |
| 2026-05-04 14:28 | 51.79393 | 2.35205 | 22002 ft | 370 kts | 262° |
| 2026-05-04 14:28 | 51.79097 | 2.31072 | 22010 ft | 370 kts | 262° |
| 2026-05-04 14:29 | 51.78510 | 2.22827 | 22005 ft | 371 kts | 262° |
| 2026-05-04 14:29 | 51.78007 | 2.14500 | 22003 ft | 373 kts | 263° |
| 2026-05-04 14:30 | 51.77762 | 2.10329 | 22001 ft | 373 kts | 263° |
| 2026-05-04 14:30 | 51.77520 | 2.06215 | 22002 ft | 373 kts | 263° |
| 2026-05-04 14:30 | 51.77020 | 1.97817 | 22004 ft | 373 kts | 263° |
| 2026-05-04 14:31 | 51.76769 | 1.93647 | 22013 ft | 373 kts | 263° |
| 2026-05-04 14:31 | 51.76264 | 1.85356 | 21152 ft | 377 kts | 263° |
| 2026-05-04 14:32 | 51.75746 | 1.76924 | 19926 ft | 377 kts | 263° |
| 2026-05-04 14:32 | 51.75486 | 1.72727 | 19391 ft | 375 kts | 263° |
| 2026-05-04 14:32 | 51.75227 | 1.68556 | 18859 ft | 373 kts | 263° |
| 2026-05-04 14:32 | 51.74966 | 1.64398 | 18341 ft | 371 kts | 263° |
| 2026-05-04 14:33 | 51.74705 | 1.60264 | 17777 ft | 369 kts | 263° |
| 2026-05-04 14:33 | 51.74446 | 1.56174 | 17240 ft | 366 kts | 263° |
| 2026-05-04 14:33 | 51.74186 | 1.52107 | 16726 ft | 362 kts | 263° |
| 2026-05-04 14:33 | 51.73929 | 1.48091 | 16238 ft | 358 kts | 263° |
| 2026-05-04 14:34 | 51.73668 | 1.44060 | 15695 ft | 356 kts | 263° |
| 2026-05-04 14:34 | 51.73411 | 1.40100 | 15175 ft | 353 kts | 263° |
| 2026-05-04 14:34 | 51.73155 | 1.36178 | 14669 ft | 350 kts | 263° |
| 2026-05-04 14:34 | 51.72900 | 1.32293 | 14195 ft | 347 kts | 263° |
| 2026-05-04 14:35 | 51.72647 | 1.28453 | 13711 ft | 344 kts | 263° |
| 2026-05-04 14:35 | 51.72394 | 1.24627 | 13170 ft | 341 kts | 263° |
| 2026-05-04 14:35 | 51.72145 | 1.20888 | 12630 ft | 338 kts | 263° |
| 2026-05-04 14:35 | 51.71891 | 1.17086 | 12170 ft | 335 kts | 263° |
| 2026-05-04 14:36 | 51.71640 | 1.13355 | 12020 ft | 334 kts | 263° |
| 2026-05-04 14:36 | 51.71392 | 1.09676 | 12007 ft | 335 kts | 263° |
| 2026-05-04 14:36 | 51.71139 | 1.05950 | 12006 ft | 334 kts | 263° |
| 2026-05-04 14:36 | 51.70886 | 1.02231 | 12008 ft | 334 kts | 263° |
| 2026-05-04 14:37 | 51.70631 | 0.98508 | 12006 ft | 335 kts | 263° |
| 2026-05-04 14:37 | 51.70375 | 0.94779 | 12005 ft | 335 kts | 263° |
| 2026-05-04 14:37 | 51.70118 | 0.91060 | 12015 ft | 334 kts | 263° |
| 2026-05-04 14:37 | 51.69859 | 0.87331 | 12015 ft | 334 kts | 263° |
| 2026-05-04 14:38 | 51.69599 | 0.83622 | 12014 ft | 333 kts | 263° |
| 2026-05-04 14:38 | 51.69339 | 0.79911 | 12013 ft | 333 kts | 263° |
| 2026-05-04 14:38 | 51.69084 | 0.76286 | 12001 ft | 317 kts | 263° |
| 2026-05-04 14:38 | 51.68840 | 0.72821 | 11885 ft | 305 kts | 263° |
| 2026-05-04 14:39 | 51.68604 | 0.69496 | 11743 ft | 294 kts | 263° |
| 2026-05-04 14:39 | 51.68372 | 0.66243 | 11316 ft | 293 kts | 263° |
| 2026-05-04 14:39 | 51.68134 | 0.62939 | 10606 ft | 301 kts | 263° |
| 2026-05-04 14:40 | 51.67636 | 0.56033 | 9055 ft | 318 kts | 263° |
| 2026-05-04 14:40 | 51.67377 | 0.52459 | 8260 ft | 323 kts | 263° |
| 2026-05-04 14:40 | 51.67114 | 0.48841 | 7491 ft | 327 kts | 263° |
| 2026-05-04 14:40 | 51.66849 | 0.45213 | 6738 ft | 328 kts | 262° |
| 2026-05-04 14:41 | 51.66579 | 0.41538 | 5966 ft | 329 kts | 263° |
| 2026-05-04 14:41 | 51.66308 | 0.37878 | 5202 ft | 330 kts | 263° |
| 2026-05-04 14:41 | 51.65766 | 0.30588 | 4102 ft | 319 kts | 263° |
| 2026-05-04 14:42 | 51.65265 | 0.23917 | 3997 ft | 281 kts | 264° |
| 2026-05-04 14:42 | 51.65036 | 0.20890 | 3994 ft | 265 kts | 264° |
| 2026-05-04 14:42 | 51.64820 | 0.18032 | 3981 ft | 250 kts | 263° |
| 2026-05-04 14:43 | 51.64431 | 0.15368 | 3804 ft | 244 kts | 246° |
| 2026-05-04 14:43 | 51.63493 | 0.13096 | 3517 ft | 244 kts | 230° |
| 2026-05-04 14:43 | 51.62366 | 0.11051 | 3228 ft | 245 kts | 228° |
| 2026-05-04 14:43 | 51.61209 | 0.09039 | 3011 ft | 245 kts | 227° |
| 2026-05-04 14:44 | 51.60051 | 0.07021 | 2995 ft | 246 kts | 228° |
| 2026-05-04 14:44 | 51.58896 | 0.04994 | 2932 ft | 245 kts | 228° |
| 2026-05-04 14:44 | 51.57756 | 0.02977 | 3001 ft | 244 kts | 229° |
| 2026-05-04 14:44 | 51.56611 | 0.00949 | 2990 ft | 245 kts | 228° |
| 2026-05-04 14:45 | 51.55463 | -0.01078 | 3016 ft | 244 kts | 228° |
| 2026-05-04 14:45 | 51.54321 | -0.03094 | 3010 ft | 245 kts | 228° |
| 2026-05-04 14:45 | 51.53196 | -0.05079 | 3008 ft | 238 kts | 228° |
| 2026-05-04 14:45 | 51.52081 | -0.07047 | 2986 ft | 236 kts | 228° |
| 2026-05-04 14:46 | 51.50978 | -0.08991 | 2982 ft | 235 kts | 228° |
| 2026-05-04 14:46 | 51.50013 | -0.10693 | 2985 ft | 235 kts | 228° |
| 2026-05-04 14:46 | 51.48915 | -0.12628 | 2980 ft | 234 kts | 228° |
| 2026-05-04 14:46 | 51.47816 | -0.14565 | 2994 ft | 235 kts | 228° |
| 2026-05-04 14:47 | 51.46908 | -0.16705 | 2991 ft | 233 kts | 249° |
| 2026-05-04 14:47 | 51.46596 | -0.19235 | 2985 ft | 232 kts | 269° |
| 2026-05-04 14:47 | 51.46623 | -0.21831 | 2820 ft | 233 kts | 273° |
| 2026-05-04 14:47 | 51.46647 | -0.24425 | 2534 ft | 231 kts | 271° |
| 2026-05-04 14:48 | 51.46622 | -0.26936 | 2189 ft | 218 kts | 270° |
| 2026-05-04 14:48 | 51.46604 | -0.29263 | 1886 ft | 200 kts | 270° |
| 2026-05-04 14:48 | 51.46592 | -0.31400 | 1626 ft | 184 kts | 271° |
| 2026-05-04 14:48 | 51.46579 | -0.33344 | 1383 ft | 166 kts | 271° |
| 2026-05-04 14:49 | 51.46568 | -0.35100 | 1162 ft | 151 kts | 270° |
| 2026-05-04 14:49 | 51.46558 | -0.36739 | 973 ft | 145 kts | 271° |
| 2026-05-04 14:49 | 51.46540 | -0.38332 | 764 ft | 141 kts | 269° |
| 2026-05-04 14:49 | 51.46500 | -0.39879 | 606 ft | 137 kts | 271° |
| 2026-05-04 14:50 | 51.46508 | -0.41381 | 435 ft | 134 kts | 272° |
| 2026-05-04 14:50 | 51.46499 | -0.42871 | 249 ft | 135 kts | 271° |
| 2026-05-04 14:50 | 51.46488 | -0.44362 | 113 ft | 130 kts | 272° |
| 2026-05-04 14:50 | 51.46487 | -0.45677 | 93 ft | 89 kts | 270° |
| 2026-05-04 14:51 | 51.46489 | -0.46191 | 91 ft | 7 kts | 268° |
| 2026-05-04 14:51 | 51.46487 | -0.46334 | 95 ft | 26 kts | 268° |
| 2026-05-04 14:51 | 51.46540 | -0.46741 | 97 ft | 47 kts | 291° |
| 2026-05-04 14:51 | 51.46644 | -0.46835 | 93 ft | 13 kts | 40° |